Sydney Kingsford Smith International Airport
YSSY : now visible

Airfield :











YOU CAN JOIN US ON...

 
LOGIN :

Register | Disclaimer

   EN    FR    IT 

 









Legend :    VFR   Marginal VFR   IFR   Intensive IFR   Very Intensive IFR
Visi :
Ceiling :
>= 8 km
>= 3000ft
5 to 8 km
1000 to 3000 ft
1500m to 5 km
500 to 1000 ft
800 to 1500m
200 to 500 ft
< 800m
< 200 ft
Symbols :   Thunderstorms  Fog  Heavy snow  Heavy precipitations  Wind > 20 kt






- Airport Elevation : 21 ft
- IATA code : SYD


YSSY - Sydney Kingsford Smith International

CURRENT METAR :
  • 270730Z 17025KT 9999 VCSH FEW016 SCT022 BKN040 17/13 Q1019

EXPIRED METARs :
  • 270700Z 17025KT 9999 VCSH FEW015 SCT025 BKN046 17/13 Q1019
  • 270630Z 17025KT 9999 FEW015 SCT025 BKN040 17/13 Q1019
  • 270600Z 16024KT 9999 FEW015 SCT025 BKN045 17/13 Q1019
  • 270530Z 17024KT 9999 -SHRA FEW015 SCT025 BKN042 17/13 Q1018

TAF AMD TAF YSSY
Valid from the 27 at 06:00 until the 28 at 12:00 UTC


270501Z 2706/2812 18025G35KT 9999 -SHRA FEW015 SCT025 BKN035
BECMG 2709/2711 18018G28KT 9999 -SHRA SCT025 BKN035
BECMG 2806/2808 17014KT 9999 -SHRA SCT020 BKN035
YMMM FIR / Oceania



MET'MAP, your aeronautical weather chart ! - Copyright ORBIFLY December 2007 - Disclaimer

ORBIFLY MET'MAP TEAM :

Programming & Development : Alexandra Zaïnal
Concept & original design : Baudouin d'Aumeries
Assistance for programming : Marc-Olivier Méhu
Technical & hardware support : Manuel Goepfert

Contact : metmap@orbifly.com




SOURCES & CREDITS :

   NOAA       Earth
Advisory